sensor_id;sensor_type;location;lat;lon;timestamp;P1;durP1;ratioP1;P2;durP2;ratioP2
6259;SDS011;3163;51.516;4.000;2023-06-14T00:00:36;1.70;;;1.60;;
6259;SDS011;3163;51.516;4.000;2023-06-14T00:03:06;1.77;;;1.50;;
6259;SDS011;3163;51.516;4.000;2023-06-14T00:05:36;2.20;;;1.70;;
6259;SDS011;3163;51.516;4.000;2023-06-14T00:08:08;2.40;;;1.63;;
6259;SDS011;3163;51.516;4.000;2023-06-14T00:10:38;3.08;;;1.40;;
6259;SDS011;3163;51.516;4.000;2023-06-14T00:13:06;1.70;;;1.52;;
6259;SDS011;3163;51.516;4.000;2023-06-14T00:15:33;2.22;;;1.63;;
6259;SDS011;3163;51.516;4.000;2023-06-14T00:17:59;1.70;;;1.60;;
6259;SDS011;3163;51.516;4.000;2023-06-14T00:20:28;1.85;;;1.75;;
6259;SDS011;3163;51.516;4.000;2023-06-14T00:22:55;2.17;;;1.98;;
6259;SDS011;3163;51.516;4.000;2023-06-14T00:25:22;1.52;;;1.45;;
6259;SDS011;3163;51.516;4.000;2023-06-14T00:27:50;3.42;;;1.58;;
6259;SDS011;3163;51.516;4.000;2023-06-14T00:30:16;1.73;;;1.63;;
6259;SDS011;3163;51.516;4.000;2023-06-14T00:32:42;3.47;;;1.60;;
6259;SDS011;3163;51.516;4.000;2023-06-14T00:35:09;1.60;;;1.50;;
6259;SDS011;3163;51.516;4.000;2023-06-14T00:37:35;2.42;;;1.90;;
6259;SDS011;3163;51.516;4.000;2023-06-14T00:40:01;2.03;;;1.50;;
6259;SDS011;3163;51.516;4.000;2023-06-14T00:42:29;2.58;;;2.00;;
6259;SDS011;3163;51.516;4.000;2023-06-14T00:44:55;1.70;;;1.60;;
6259;SDS011;3163;51.516;4.000;2023-06-14T00:47:21;2.45;;;1.80;;
6259;SDS011;3163;51.516;4.000;2023-06-14T00:49:47;1.60;;;1.48;;
6259;SDS011;3163;51.516;4.000;2023-06-14T00:52:14;1.50;;;1.40;;
6259;SDS011;3163;51.516;4.000;2023-06-14T00:54:40;1.70;;;1.60;;
6259;SDS011;3163;51.516;4.000;2023-06-14T00:57:07;1.70;;;1.60;;
6259;SDS011;3163;51.516;4.000;2023-06-14T00:59:34;2.15;;;1.75;;
6259;SDS011;3163;51.516;4.000;2023-06-14T01:02:01;2.00;;;1.83;;
6259;SDS011;3163;51.516;4.000;2023-06-14T01:04:27;1.85;;;1.67;;
6259;SDS011;3163;51.516;4.000;2023-06-14T01:09:28;2.03;;;1.52;;
6259;SDS011;3163;51.516;4.000;2023-06-14T01:14:41;2.08;;;1.80;;
6259;SDS011;3163;51.516;4.000;2023-06-14T01:17:08;1.90;;;1.80;;
6259;SDS011;3163;51.516;4.000;2023-06-14T01:19:42;1.52;;;1.42;;
6259;SDS011;3163;51.516;4.000;2023-06-14T01:22:08;1.95;;;1.77;;
6259;SDS011;3163;51.516;4.000;2023-06-14T01:24:34;2.10;;;1.90;;
6259;SDS011;3163;51.516;4.000;2023-06-14T01:27:00;1.67;;;1.58;;
6259;SDS011;3163;51.516;4.000;2023-06-14T01:29:27;2.22;;;1.85;;
6259;SDS011;3163;51.516;4.000;2023-06-14T01:31:58;2.05;;;1.65;;
6259;SDS011;3163;51.516;4.000;2023-06-14T01:34:24;2.55;;;2.20;;
6259;SDS011;3163;51.516;4.000;2023-06-14T01:36:50;1.40;;;1.30;;
6259;SDS011;3163;51.516;4.000;2023-06-14T01:39:17;1.60;;;1.50;;
6259;SDS011;3163;51.516;4.000;2023-06-14T01:41:44;1.50;;;1.40;;
6259;SDS011;3163;51.516;4.000;2023-06-14T01:44:11;1.48;;;1.38;;
6259;SDS011;3163;51.516;4.000;2023-06-14T01:46:38;1.65;;;1.52;;
6259;SDS011;3163;51.516;4.000;2023-06-14T01:49:04;1.90;;;1.70;;
6259;SDS011;3163;51.516;4.000;2023-06-14T01:51:30;1.83;;;1.73;;
6259;SDS011;3163;51.516;4.000;2023-06-14T01:53:56;3.05;;;1.40;;
6259;SDS011;3163;51.516;4.000;2023-06-14T01:56:22;1.92;;;1.33;;
6259;SDS011;3163;51.516;4.000;2023-06-14T01:58:48;1.85;;;1.70;;
6259;SDS011;3163;51.516;4.000;2023-06-14T02:01:15;1.97;;;1.87;;
6259;SDS011;3163;51.516;4.000;2023-06-14T02:03:41;2.55;;;1.52;;
6259;SDS011;3163;51.516;4.000;2023-06-14T02:06:09;1.60;;;1.50;;
6259;SDS011;3163;51.516;4.000;2023-06-14T02:08:35;2.03;;;1.83;;
6259;SDS011;3163;51.516;4.000;2023-06-14T02:11:01;1.45;;;1.35;;
6259;SDS011;3163;51.516;4.000;2023-06-14T02:13:27;2.05;;;1.80;;
6259;SDS011;3163;51.516;4.000;2023-06-14T02:15:53;1.92;;;1.58;;
6259;SDS011;3163;51.516;4.000;2023-06-14T02:18:20;2.03;;;1.88;;
6259;SDS011;3163;51.516;4.000;2023-06-14T02:20:46;3.97;;;1.65;;
6259;SDS011;3163;51.516;4.000;2023-06-14T02:23:12;2.78;;;1.75;;
6259;SDS011;3163;51.516;4.000;2023-06-14T02:25:38;1.92;;;1.65;;
6259;SDS011;3163;51.516;4.000;2023-06-14T02:28:05;1.90;;;1.70;;
6259;SDS011;3163;51.516;4.000;2023-06-14T02:30:31;1.98;;;1.80;;
6259;SDS011;3163;51.516;4.000;2023-06-14T02:32:57;3.20;;;1.45;;
6259;SDS011;3163;51.516;4.000;2023-06-14T02:35:24;1.40;;;1.23;;
6259;SDS011;3163;51.516;4.000;2023-06-14T02:37:53;1.55;;;1.40;;
6259;SDS011;3163;51.516;4.000;2023-06-14T02:40:19;2.10;;;2.00;;
6259;SDS011;3163;51.516;4.000;2023-06-14T02:42:45;1.70;;;1.35;;
6259;SDS011;3163;51.516;4.000;2023-06-14T02:45:11;1.63;;;1.52;;
6259;SDS011;3163;51.516;4.000;2023-06-14T02:47:37;1.83;;;1.70;;
6259;SDS011;3163;51.516;4.000;2023-06-14T02:50:04;2.83;;;1.40;;
6259;SDS011;3163;51.516;4.000;2023-06-14T02:52:30;2.65;;;1.77;;
6259;SDS011;3163;51.516;4.000;2023-06-14T02:54:58;1.40;;;1.30;;
6259;SDS011;3163;51.516;4.000;2023-06-14T02:57:24;3.03;;;1.65;;
6259;SDS011;3163;51.516;4.000;2023-06-14T02:59:50;2.20;;;1.65;;
6259;SDS011;3163;51.516;4.000;2023-06-14T03:02:17;2.03;;;1.77;;
6259;SDS011;3163;51.516;4.000;2023-06-14T03:04:43;2.42;;;1.70;;
6259;SDS011;3163;51.516;4.000;2023-06-14T03:07:12;1.73;;;1.27;;
6259;SDS011;3163;51.516;4.000;2023-06-14T03:09:38;1.92;;;1.73;;
6259;SDS011;3163;51.516;4.000;2023-06-14T03:12:04;3.58;;;1.98;;
6259;SDS011;3163;51.516;4.000;2023-06-14T03:14:34;1.42;;;1.35;;
6259;SDS011;3163;51.516;4.000;2023-06-14T03:17:01;2.17;;;1.58;;
6259;SDS011;3163;51.516;4.000;2023-06-14T03:19:27;5.47;;;1.70;;
6259;SDS011;3163;51.516;4.000;2023-06-14T03:21:53;3.53;;;1.80;;
6259;SDS011;3163;51.516;4.000;2023-06-14T03:24:21;2.22;;;1.67;;
6259;SDS011;3163;51.516;4.000;2023-06-14T03:26:47;2.55;;;1.60;;
6259;SDS011;3163;51.516;4.000;2023-06-14T03:29:13;1.98;;;1.88;;
6259;SDS011;3163;51.516;4.000;2023-06-14T03:31:41;1.73;;;1.42;;
6259;SDS011;3163;51.516;4.000;2023-06-14T03:34:21;1.75;;;1.65;;
6259;SDS011;3163;51.516;4.000;2023-06-14T03:36:47;2.55;;;1.67;;
6259;SDS011;3163;51.516;4.000;2023-06-14T03:39:14;2.00;;;1.70;;
6259;SDS011;3163;51.516;4.000;2023-06-14T03:41:40;1.92;;;1.35;;
6259;SDS011;3163;51.516;4.000;2023-06-14T03:44:06;1.40;;;1.30;;
6259;SDS011;3163;51.516;4.000;2023-06-14T03:46:32;2.55;;;1.27;;
6259;SDS011;3163;51.516;4.000;2023-06-14T03:48:58;2.88;;;1.70;;
6259;SDS011;3163;51.516;4.000;2023-06-14T03:51:25;2.60;;;1.85;;
6259;SDS011;3163;51.516;4.000;2023-06-14T03:53:51;1.60;;;1.50;;
6259;SDS011;3163;51.516;4.000;2023-06-14T03:56:17;1.80;;;1.52;;
6259;SDS011;3163;51.516;4.000;2023-06-14T03:58:43;1.73;;;1.35;;
6259;SDS011;3163;51.516;4.000;2023-06-14T04:01:09;1.95;;;1.80;;
6259;SDS011;3163;51.516;4.000;2023-06-14T04:03:37;1.52;;;1.40;;
6259;SDS011;3163;51.516;4.000;2023-06-14T04:06:05;1.52;;;1.50;;
6259;SDS011;3163;51.516;4.000;2023-06-14T04:08:31;1.70;;;1.60;;
6259;SDS011;3163;51.516;4.000;2023-06-14T04:10:57;1.85;;;1.75;;
6259;SDS011;3163;51.516;4.000;2023-06-14T04:13:23;1.50;;;1.40;;
6259;SDS011;3163;51.516;4.000;2023-06-14T04:15:49;1.50;;;1.40;;
6259;SDS011;3163;51.516;4.000;2023-06-14T04:18:15;2.33;;;1.77;;
6259;SDS011;3163;51.516;4.000;2023-06-14T04:20:41;2.83;;;1.77;;
6259;SDS011;3163;51.516;4.000;2023-06-14T04:23:14;2.05;;;1.60;;
6259;SDS011;3163;51.516;4.000;2023-06-14T04:25:42;2.15;;;1.88;;
6259;SDS011;3163;51.516;4.000;2023-06-14T04:28:10;1.73;;;1.42;;
6259;SDS011;3163;51.516;4.000;2023-06-14T04:30:36;2.10;;;1.70;;
6259;SDS011;3163;51.516;4.000;2023-06-14T04:33:04;1.58;;;1.48;;
6259;SDS011;3163;51.516;4.000;2023-06-14T04:35:31;1.60;;;1.50;;
6259;SDS011;3163;51.516;4.000;2023-06-14T04:38:01;1.83;;;1.70;;
6259;SDS011;3163;51.516;4.000;2023-06-14T04:40:29;1.75;;;1.65;;
6259;SDS011;3163;51.516;4.000;2023-06-14T04:42:55;1.70;;;1.58;;
6259;SDS011;3163;51.516;4.000;2023-06-14T04:45:22;2.65;;;1.58;;
6259;SDS011;3163;51.516;4.000;2023-06-14T04:47:48;1.70;;;1.60;;
6259;SDS011;3163;51.516;4.000;2023-06-14T04:50:16;1.45;;;1.35;;
6259;SDS011;3163;51.516;4.000;2023-06-14T04:52:43;1.77;;;1.67;;
6259;SDS011;3163;51.516;4.000;2023-06-14T04:55:09;1.65;;;1.55;;
6259;SDS011;3163;51.516;4.000;2023-06-14T04:57:35;2.40;;;1.52;;
6259;SDS011;3163;51.516;4.000;2023-06-14T05:00:03;1.50;;;1.40;;
6259;SDS011;3163;51.516;4.000;2023-06-14T05:02:30;1.92;;;1.60;;
6259;SDS011;3163;51.516;4.000;2023-06-14T05:04:57;2.92;;;1.90;;
6259;SDS011;3163;51.516;4.000;2023-06-14T05:07:24;2.35;;;2.10;;
6259;SDS011;3163;51.516;4.000;2023-06-14T05:09:50;2.10;;;1.90;;
6259;SDS011;3163;51.516;4.000;2023-06-14T05:12:16;2.97;;;1.90;;
6259;SDS011;3163;51.516;4.000;2023-06-14T05:14:43;2.30;;;1.77;;
6259;SDS011;3163;51.516;4.000;2023-06-14T05:17:09;1.65;;;1.55;;
6259;SDS011;3163;51.516;4.000;2023-06-14T05:19:35;1.80;;;1.65;;
6259;SDS011;3163;51.516;4.000;2023-06-14T05:22:01;1.80;;;1.63;;
6259;SDS011;3163;51.516;4.000;2023-06-14T05:24:28;1.80;;;1.50;;
6259;SDS011;3163;51.516;4.000;2023-06-14T05:26:55;1.52;;;1.38;;
6259;SDS011;3163;51.516;4.000;2023-06-14T05:29:21;1.92;;;1.48;;
6259;SDS011;3163;51.516;4.000;2023-06-14T05:31:47;1.83;;;1.60;;
6259;SDS011;3163;51.516;4.000;2023-06-14T05:34:13;1.33;;;1.27;;
6259;SDS011;3163;51.516;4.000;2023-06-14T05:36:40;1.70;;;1.60;;
6259;SDS011;3163;51.516;4.000;2023-06-14T05:39:06;3.92;;;1.58;;
6259;SDS011;3163;51.516;4.000;2023-06-14T05:41:32;2.67;;;1.48;;
6259;SDS011;3163;51.516;4.000;2023-06-14T05:43:58;3.83;;;1.63;;
6259;SDS011;3163;51.516;4.000;2023-06-14T05:46:25;1.50;;;1.40;;
6259;SDS011;3163;51.516;4.000;2023-06-14T05:48:51;1.90;;;1.70;;
6259;SDS011;3163;51.516;4.000;2023-06-14T05:51:17;2.15;;;1.95;;
6259;SDS011;3163;51.516;4.000;2023-06-14T05:53:46;1.73;;;1.63;;
6259;SDS011;3163;51.516;4.000;2023-06-14T05:56:13;1.65;;;1.55;;
6259;SDS011;3163;51.516;4.000;2023-06-14T05:58:39;2.10;;;1.77;;
6259;SDS011;3163;51.516;4.000;2023-06-14T06:01:05;5.13;;;2.40;;
6259;SDS011;3163;51.516;4.000;2023-06-14T06:03:31;3.00;;;2.30;;
6259;SDS011;3163;51.516;4.000;2023-06-14T06:05:57;2.20;;;1.67;;
6259;SDS011;3163;51.516;4.000;2023-06-14T06:08:23;5.20;;;2.65;;
6259;SDS011;3163;51.516;4.000;2023-06-14T06:10:49;5.25;;;2.67;;
6259;SDS011;3163;51.516;4.000;2023-06-14T06:13:15;6.95;;;2.97;;
6259;SDS011;3163;51.516;4.000;2023-06-14T06:15:41;2.10;;;1.17;;
6259;SDS011;3163;51.516;4.000;2023-06-14T06:18:07;6.15;;;2.38;;
6259;SDS011;3163;51.516;4.000;2023-06-14T06:20:33;10.18;;;2.30;;
6259;SDS011;3163;51.516;4.000;2023-06-14T06:23:01;3.60;;;2.63;;
6259;SDS011;3163;51.516;4.000;2023-06-14T06:25:27;5.20;;;2.85;;
6259;SDS011;3163;51.516;4.000;2023-06-14T06:27:54;7.20;;;2.47;;
6259;SDS011;3163;51.516;4.000;2023-06-14T06:30:23;3.08;;;2.80;;
6259;SDS011;3163;51.516;4.000;2023-06-14T06:32:49;4.18;;;1.95;;
6259;SDS011;3163;51.516;4.000;2023-06-14T06:35:15;2.90;;;2.17;;
6259;SDS011;3163;51.516;4.000;2023-06-14T06:37:42;2.70;;;1.98;;
6259;SDS011;3163;51.516;4.000;2023-06-14T06:40:08;6.03;;;2.70;;
6259;SDS011;3163;51.516;4.000;2023-06-14T06:42:34;6.53;;;3.28;;
6259;SDS011;3163;51.516;4.000;2023-06-14T06:45:00;5.90;;;2.42;;
6259;SDS011;3163;51.516;4.000;2023-06-14T06:47:26;2.35;;;2.15;;
6259;SDS011;3163;51.516;4.000;2023-06-14T06:49:52;2.40;;;2.20;;
6259;SDS011;3163;51.516;4.000;2023-06-14T06:52:18;4.90;;;2.47;;
6259;SDS011;3163;51.516;4.000;2023-06-14T06:54:45;5.90;;;2.75;;
6259;SDS011;3163;51.516;4.000;2023-06-14T06:57:11;5.07;;;2.35;;
6259;SDS011;3163;51.516;4.000;2023-06-14T06:59:37;4.80;;;2.83;;
6259;SDS011;3163;51.516;4.000;2023-06-14T07:02:03;7.03;;;2.20;;
6259;SDS011;3163;51.516;4.000;2023-06-14T07:04:30;3.17;;;2.22;;
6259;SDS011;3163;51.516;4.000;2023-06-14T07:06:56;3.50;;;2.17;;
6259;SDS011;3163;51.516;4.000;2023-06-14T07:09:22;8.63;;;2.67;;
6259;SDS011;3163;51.516;4.000;2023-06-14T07:11:49;3.63;;;1.95;;
6259;SDS011;3163;51.516;4.000;2023-06-14T07:14:15;3.05;;;2.72;;
6259;SDS011;3163;51.516;4.000;2023-06-14T07:16:42;4.03;;;2.10;;
6259;SDS011;3163;51.516;4.000;2023-06-14T07:19:08;1.50;;;1.07;;
6259;SDS011;3163;51.516;4.000;2023-06-14T07:21:35;4.33;;;1.10;;
6259;SDS011;3163;51.516;4.000;2023-06-14T07:24:03;2.10;;;1.90;;
6259;SDS011;3163;51.516;4.000;2023-06-14T07:26:31;4.53;;;1.07;;
6259;SDS011;3163;51.516;4.000;2023-06-14T07:28:57;3.27;;;2.30;;
6259;SDS011;3163;51.516;4.000;2023-06-14T07:31:23;5.05;;;2.35;;
6259;SDS011;3163;51.516;4.000;2023-06-14T07:33:49;6.63;;;1.95;;
6259;SDS011;3163;51.516;4.000;2023-06-14T07:36:16;1.48;;;1.40;;
6259;SDS011;3163;51.516;4.000;2023-06-14T07:38:42;6.07;;;2.60;;
6259;SDS011;3163;51.516;4.000;2023-06-14T07:41:09;4.50;;;2.35;;
6259;SDS011;3163;51.516;4.000;2023-06-14T07:43:35;7.85;;;2.47;;
6259;SDS011;3163;51.516;4.000;2023-06-14T07:46:01;3.55;;;2.58;;
6259;SDS011;3163;51.516;4.000;2023-06-14T07:48:27;3.13;;;2.47;;
6259;SDS011;3163;51.516;4.000;2023-06-14T07:50:53;5.32;;;2.22;;
6259;SDS011;3163;51.516;4.000;2023-06-14T07:53:20;2.50;;;2.30;;
6259;SDS011;3163;51.516;4.000;2023-06-14T07:55:46;4.00;;;2.53;;
6259;SDS011;3163;51.516;4.000;2023-06-14T07:58:12;2.65;;;2.08;;
6259;SDS011;3163;51.516;4.000;2023-06-14T08:00:38;2.38;;;2.10;;
6259;SDS011;3163;51.516;4.000;2023-06-14T08:03:04;3.55;;;2.45;;
6259;SDS011;3163;51.516;4.000;2023-06-14T08:05:30;4.07;;;3.00;;
6259;SDS011;3163;51.516;4.000;2023-06-14T08:07:56;2.85;;;2.30;;
6259;SDS011;3163;51.516;4.000;2023-06-14T08:10:23;2.30;;;2.10;;
6259;SDS011;3163;51.516;4.000;2023-06-14T08:12:49;2.47;;;2.28;;
6259;SDS011;3163;51.516;4.000;2023-06-14T08:15:15;4.28;;;2.17;;
6259;SDS011;3163;51.516;4.000;2023-06-14T08:17:44;2.20;;;1.67;;
6259;SDS011;3163;51.516;4.000;2023-06-14T08:20:10;2.65;;;1.88;;
6259;SDS011;3163;51.516;4.000;2023-06-14T08:22:37;2.10;;;1.92;;
6259;SDS011;3163;51.516;4.000;2023-06-14T08:25:04;2.70;;;2.25;;
6259;SDS011;3163;51.516;4.000;2023-06-14T08:27:31;2.72;;;1.83;;
6259;SDS011;3163;51.516;4.000;2023-06-14T08:29:57;3.17;;;2.10;;
6259;SDS011;3163;51.516;4.000;2023-06-14T08:32:23;2.95;;;2.30;;
6259;SDS011;3163;51.516;4.000;2023-06-14T08:34:49;5.10;;;2.22;;
6259;SDS011;3163;51.516;4.000;2023-06-14T08:37:15;2.38;;;1.80;;
6259;SDS011;3163;51.516;4.000;2023-06-14T08:39:41;2.80;;;2.00;;
6259;SDS011;3163;51.516;4.000;2023-06-14T08:42:09;2.00;;;1.90;;
6259;SDS011;3163;51.516;4.000;2023-06-14T08:44:35;1.70;;;1.60;;
6259;SDS011;3163;51.516;4.000;2023-06-14T08:47:01;1.95;;;1.73;;
6259;SDS011;3163;51.516;4.000;2023-06-14T08:49:31;3.47;;;2.08;;
6259;SDS011;3163;51.516;4.000;2023-06-14T08:51:57;2.20;;;1.90;;
6259;SDS011;3163;51.516;4.000;2023-06-14T08:54:25;1.55;;;1.45;;
6259;SDS011;3163;51.516;4.000;2023-06-14T08:56:52;4.72;;;2.10;;
6259;SDS011;3163;51.516;4.000;2023-06-14T08:59:18;1.70;;;1.60;;
6259;SDS011;3163;51.516;4.000;2023-06-14T09:01:46;1.58;;;1.48;;
6259;SDS011;3163;51.516;4.000;2023-06-14T09:04:12;2.13;;;1.70;;
6259;SDS011;3163;51.516;4.000;2023-06-14T09:06:39;2.20;;;1.80;;
6259;SDS011;3163;51.516;4.000;2023-06-14T09:09:05;1.52;;;1.42;;
6259;SDS011;3163;51.516;4.000;2023-06-14T09:11:32;2.80;;;1.98;;
6259;SDS011;3163;51.516;4.000;2023-06-14T09:13:58;2.13;;;1.90;;
6259;SDS011;3163;51.516;4.000;2023-06-14T09:16:25;3.03;;;1.80;;
6259;SDS011;3163;51.516;4.000;2023-06-14T09:18:51;2.20;;;1.70;;
6259;SDS011;3163;51.516;4.000;2023-06-14T09:21:17;2.00;;;1.90;;
6259;SDS011;3163;51.516;4.000;2023-06-14T09:23:44;2.28;;;1.88;;
6259;SDS011;3163;51.516;4.000;2023-06-14T09:26:14;1.73;;;1.58;;
6259;SDS011;3163;51.516;4.000;2023-06-14T09:28:41;2.45;;;1.35;;
6259;SDS011;3163;51.516;4.000;2023-06-14T09:31:08;2.22;;;2.05;;
6259;SDS011;3163;51.516;4.000;2023-06-14T09:33:36;2.88;;;1.70;;
6259;SDS011;3163;51.516;4.000;2023-06-14T09:36:02;1.80;;;1.70;;
6259;SDS011;3163;51.516;4.000;2023-06-14T09:38:28;3.65;;;2.00;;
6259;SDS011;3163;51.516;4.000;2023-06-14T09:40:58;2.47;;;1.80;;
6259;SDS011;3163;51.516;4.000;2023-06-14T09:43:24;2.78;;;2.10;;
6259;SDS011;3163;51.516;4.000;2023-06-14T09:45:52;5.68;;;2.20;;
6259;SDS011;3163;51.516;4.000;2023-06-14T09:48:19;4.18;;;2.10;;
6259;SDS011;3163;51.516;4.000;2023-06-14T09:50:48;2.78;;;1.92;;
6259;SDS011;3163;51.516;4.000;2023-06-14T09:53:15;1.70;;;1.60;;
6259;SDS011;3163;51.516;4.000;2023-06-14T09:55:45;2.00;;;1.85;;
6259;SDS011;3163;51.516;4.000;2023-06-14T09:58:12;2.88;;;2.33;;
6259;SDS011;3163;51.516;4.000;2023-06-14T10:00:40;2.65;;;1.80;;
6259;SDS011;3163;51.516;4.000;2023-06-14T10:05:34;2.17;;;1.92;;
6259;SDS011;3163;51.516;4.000;2023-06-14T10:08:07;4.85;;;2.30;;
6259;SDS011;3163;51.516;4.000;2023-06-14T10:10:34;3.80;;;2.28;;
6259;SDS011;3163;51.516;4.000;2023-06-14T10:13:00;2.45;;;2.00;;
6259;SDS011;3163;51.516;4.000;2023-06-14T10:15:32;1.90;;;1.80;;
6259;SDS011;3163;51.516;4.000;2023-06-14T10:18:09;2.13;;;2.03;;
6259;SDS011;3163;51.516;4.000;2023-06-14T10:20:42;3.45;;;2.85;;
6259;SDS011;3163;51.516;4.000;2023-06-14T10:23:11;4.00;;;2.45;;
6259;SDS011;3163;51.516;4.000;2023-06-14T10:25:39;3.58;;;2.40;;
6259;SDS011;3163;51.516;4.000;2023-06-14T10:39:37;4.47;;;2.53;;
6259;SDS011;3163;51.516;4.000;2023-06-14T10:41:53;2.70;;;2.50;;
6259;SDS011;3163;51.516;4.000;2023-06-14T10:46:48;3.33;;;2.60;;
6259;SDS011;3163;51.516;4.000;2023-06-14T10:49:18;3.97;;;2.60;;
6259;SDS011;3163;51.516;4.000;2023-06-14T10:51:44;2.30;;;2.15;;
6259;SDS011;3163;51.516;4.000;2023-06-14T10:54:13;2.10;;;1.90;;
6259;SDS011;3163;51.516;4.000;2023-06-14T10:56:46;2.72;;;2.47;;
6259;SDS011;3163;51.516;4.000;2023-06-14T10:59:12;5.03;;;2.17;;
6259;SDS011;3163;51.516;4.000;2023-06-14T11:01:58;2.50;;;2.30;;
6259;SDS011;3163;51.516;4.000;2023-06-14T11:04:46;2.47;;;2.28;;
6259;SDS011;3163;51.516;4.000;2023-06-14T11:07:55;2.40;;;2.00;;
6259;SDS011;3163;51.516;4.000;2023-06-14T11:10:09;2.15;;;1.83;;
6259;SDS011;3163;51.516;4.000;2023-06-14T11:12:38;3.25;;;2.50;;
6259;SDS011;3163;51.516;4.000;2023-06-14T11:15:07;3.13;;;2.22;;
6259;SDS011;3163;51.516;4.000;2023-06-14T11:17:33;1.63;;;1.60;;
6259;SDS011;3163;51.516;4.000;2023-06-14T11:20:10;2.45;;;2.20;;
6259;SDS011;3163;51.516;4.000;2023-06-14T11:22:41;2.55;;;2.35;;
6259;SDS011;3163;51.516;4.000;2023-06-14T11:25:10;3.67;;;2.38;;
6259;SDS011;3163;51.516;4.000;2023-06-14T11:27:36;2.05;;;1.95;;
6259;SDS011;3163;51.516;4.000;2023-06-14T11:30:03;4.15;;;2.40;;
6259;SDS011;3163;51.516;4.000;2023-06-14T11:32:30;2.80;;;2.00;;
6259;SDS011;3163;51.516;4.000;2023-06-14T11:34:57;2.33;;;2.13;;
6259;SDS011;3163;51.516;4.000;2023-06-14T11:37:24;2.50;;;2.30;;
6259;SDS011;3163;51.516;4.000;2023-06-14T11:39:51;2.05;;;1.90;;
6259;SDS011;3163;51.516;4.000;2023-06-14T11:42:17;1.90;;;1.80;;
6259;SDS011;3163;51.516;4.000;2023-06-14T11:44:46;1.80;;;1.70;;
6259;SDS011;3163;51.516;4.000;2023-06-14T11:47:12;3.38;;;2.10;;
6259;SDS011;3163;51.516;4.000;2023-06-14T11:49:38;3.45;;;1.80;;
6259;SDS011;3163;51.516;4.000;2023-06-14T11:52:04;2.38;;;2.17;;
6259;SDS011;3163;51.516;4.000;2023-06-14T11:54:31;1.85;;;1.70;;
6259;SDS011;3163;51.516;4.000;2023-06-14T11:56:58;2.15;;;1.88;;
6259;SDS011;3163;51.516;4.000;2023-06-14T11:59:24;3.63;;;2.00;;
6259;SDS011;3163;51.516;4.000;2023-06-14T12:01:52;2.75;;;1.75;;
6259;SDS011;3163;51.516;4.000;2023-06-14T12:04:28;2.03;;;1.83;;
6259;SDS011;3163;51.516;4.000;2023-06-14T12:06:54;1.83;;;1.73;;
6259;SDS011;3163;51.516;4.000;2023-06-14T12:09:22;2.13;;;1.80;;
6259;SDS011;3163;51.516;4.000;2023-06-14T12:11:49;3.35;;;1.80;;
6259;SDS011;3163;51.516;4.000;2023-06-14T12:14:15;2.03;;;1.92;;
6259;SDS011;3163;51.516;4.000;2023-06-14T12:16:41;2.22;;;2.00;;
6259;SDS011;3163;51.516;4.000;2023-06-14T12:19:17;2.40;;;2.20;;
6259;SDS011;3163;51.516;4.000;2023-06-14T12:21:45;2.58;;;2.00;;
6259;SDS011;3163;51.516;4.000;2023-06-14T12:24:13;1.48;;;1.38;;
6259;SDS011;3163;51.516;4.000;2023-06-14T12:26:39;3.35;;;1.90;;
6259;SDS011;3163;51.516;4.000;2023-06-14T12:29:06;1.60;;;1.50;;
6259;SDS011;3163;51.516;4.000;2023-06-14T12:31:32;1.55;;;1.45;;
6259;SDS011;3163;51.516;4.000;2023-06-14T12:33:58;1.40;;;1.25;;
6259;SDS011;3163;51.516;4.000;2023-06-14T12:36:24;7.60;;;0.90;;
6259;SDS011;3163;51.516;4.000;2023-06-14T12:38:51;2.05;;;1.63;;
6259;SDS011;3163;51.516;4.000;2023-06-14T12:41:21;1.05;;;0.98;;
6259;SDS011;3163;51.516;4.000;2023-06-14T12:43:47;3.20;;;0.77;;
6259;SDS011;3163;51.516;4.000;2023-06-14T12:46:13;4.72;;;1.50;;
6259;SDS011;3163;51.516;4.000;2023-06-14T12:48:39;1.52;;;1.23;;
6259;SDS011;3163;51.516;4.000;2023-06-14T12:51:05;0.90;;;0.73;;
6259;SDS011;3163;51.516;4.000;2023-06-14T12:53:31;0.80;;;0.80;;
6259;SDS011;3163;51.516;4.000;2023-06-14T12:55:57;1.40;;;0.80;;
6259;SDS011;3163;51.516;4.000;2023-06-14T12:58:23;0.75;;;0.75;;
6259;SDS011;3163;51.516;4.000;2023-06-14T13:00:49;0.85;;;0.85;;
6259;SDS011;3163;51.516;4.000;2023-06-14T13:03:15;0.95;;;0.38;;
6259;SDS011;3163;51.516;4.000;2023-06-14T13:05:41;1.27;;;1.17;;
6259;SDS011;3163;51.516;4.000;2023-06-14T13:08:08;0.35;;;0.35;;
6259;SDS011;3163;51.516;4.000;2023-06-14T13:10:34;0.82;;;0.65;;
6259;SDS011;3163;51.516;4.000;2023-06-14T13:13:00;0.47;;;0.47;;
6259;SDS011;3163;51.516;4.000;2023-06-14T13:15:27;1.75;;;1.02;;
6259;SDS011;3163;51.516;4.000;2023-06-14T13:17:53;1.77;;;1.02;;
6259;SDS011;3163;51.516;4.000;2023-06-14T13:20:20;1.00;;;0.70;;
6259;SDS011;3163;51.516;4.000;2023-06-14T13:22:46;1.05;;;0.73;;
6259;SDS011;3163;51.516;4.000;2023-06-14T13:25:12;2.20;;;0.70;;
6259;SDS011;3163;51.516;4.000;2023-06-14T13:27:38;0.68;;;0.68;;
6259;SDS011;3163;51.516;4.000;2023-06-14T13:30:04;1.00;;;0.77;;
6259;SDS011;3163;51.516;4.000;2023-06-14T13:32:30;3.38;;;1.17;;
6259;SDS011;3163;51.516;4.000;2023-06-14T13:34:56;2.72;;;0.60;;
6259;SDS011;3163;51.516;4.000;2023-06-14T13:37:22;0.70;;;0.70;;
6259;SDS011;3163;51.516;4.000;2023-06-14T13:39:48;1.75;;;0.77;;
6259;SDS011;3163;51.516;4.000;2023-06-14T13:42:15;2.08;;;0.65;;
6259;SDS011;3163;51.516;4.000;2023-06-14T13:44:41;1.00;;;0.75;;
6259;SDS011;3163;51.516;4.000;2023-06-14T13:47:07;2.55;;;0.80;;
6259;SDS011;3163;51.516;4.000;2023-06-14T13:49:33;1.40;;;0.90;;
6259;SDS011;3163;51.516;4.000;2023-06-14T13:52:00;1.15;;;0.90;;
6259;SDS011;3163;51.516;4.000;2023-06-14T13:54:26;1.10;;;1.05;;
6259;SDS011;3163;51.516;4.000;2023-06-14T13:56:52;1.40;;;0.90;;
6259;SDS011;3163;51.516;4.000;2023-06-14T13:59:19;1.15;;;0.40;;
6259;SDS011;3163;51.516;4.000;2023-06-14T14:01:45;1.80;;;0.97;;
6259;SDS011;3163;51.516;4.000;2023-06-14T14:04:12;1.15;;;1.15;;
6259;SDS011;3163;51.516;4.000;2023-06-14T14:06:38;0.77;;;0.77;;
6259;SDS011;3163;51.516;4.000;2023-06-14T14:09:04;1.58;;;0.80;;
6259;SDS011;3163;51.516;4.000;2023-06-14T14:11:30;2.08;;;1.10;;
6259;SDS011;3163;51.516;4.000;2023-06-14T14:13:58;1.13;;;0.88;;
6259;SDS011;3163;51.516;4.000;2023-06-14T14:16:24;0.70;;;0.70;;
6259;SDS011;3163;51.516;4.000;2023-06-14T14:18:50;0.80;;;0.80;;
6259;SDS011;3163;51.516;4.000;2023-06-14T14:21:16;0.65;;;0.65;;
6259;SDS011;3163;51.516;4.000;2023-06-14T14:23:42;0.70;;;0.70;;
6259;SDS011;3163;51.516;4.000;2023-06-14T14:26:10;1.20;;;0.70;;
6259;SDS011;3163;51.516;4.000;2023-06-14T14:28:36;2.50;;;1.05;;
6259;SDS011;3163;51.516;4.000;2023-06-14T14:31:02;2.17;;;1.02;;
6259;SDS011;3163;51.516;4.000;2023-06-14T14:33:28;0.75;;;0.75;;
6259;SDS011;3163;51.516;4.000;2023-06-14T14:35:54;0.98;;;0.95;;
6259;SDS011;3163;51.516;4.000;2023-06-14T14:38:20;1.08;;;1.05;;
6259;SDS011;3163;51.516;4.000;2023-06-14T14:40:46;0.90;;;0.90;;
6259;SDS011;3163;51.516;4.000;2023-06-14T14:43:13;0.90;;;0.90;;
6259;SDS011;3163;51.516;4.000;2023-06-14T14:45:39;0.73;;;0.73;;
6259;SDS011;3163;51.516;4.000;2023-06-14T14:48:05;1.88;;;1.10;;
6259;SDS011;3163;51.516;4.000;2023-06-14T14:50:31;0.85;;;0.85;;
6259;SDS011;3163;51.516;4.000;2023-06-14T14:52:57;1.03;;;0.93;;
6259;SDS011;3163;51.516;4.000;2023-06-14T14:55:23;1.15;;;1.00;;
6259;SDS011;3163;51.516;4.000;2023-06-14T14:57:49;0.82;;;0.63;;
6259;SDS011;3163;51.516;4.000;2023-06-14T15:00:16;0.60;;;0.60;;
6259;SDS011;3163;51.516;4.000;2023-06-14T15:02:42;1.83;;;0.70;;
6259;SDS011;3163;51.516;4.000;2023-06-14T15:05:08;1.17;;;0.68;;
6259;SDS011;3163;51.516;4.000;2023-06-14T15:07:34;1.13;;;0.70;;
6259;SDS011;3163;51.516;4.000;2023-06-14T15:10:00;0.80;;;0.63;;
6259;SDS011;3163;51.516;4.000;2023-06-14T15:12:26;1.17;;;0.98;;
6259;SDS011;3163;51.516;4.000;2023-06-14T15:14:52;0.52;;;0.52;;
6259;SDS011;3163;51.516;4.000;2023-06-14T15:17:19;0.35;;;0.35;;
6259;SDS011;3163;51.516;4.000;2023-06-14T15:19:45;4.37;;;1.03;;
6259;SDS011;3163;51.516;4.000;2023-06-14T15:22:12;2.83;;;1.20;;
6259;SDS011;3163;51.516;4.000;2023-06-14T15:24:39;2.70;;;1.33;;
6259;SDS011;3163;51.516;4.000;2023-06-14T15:27:05;1.27;;;1.17;;
6259;SDS011;3163;51.516;4.000;2023-06-14T15:29:31;1.73;;;1.30;;
6259;SDS011;3163;51.516;4.000;2023-06-14T15:31:57;1.10;;;1.10;;
6259;SDS011;3163;51.516;4.000;2023-06-14T15:34:23;0.98;;;0.95;;